Main page
METAR-TAF:

METAR-TAF

Airports :

Rouen, France

Rouen Airport

latitude: 49-23N, longitude: 001-11E, elevation: 157 m

Current weather observation

The report was made 18 minutes ago, at 00:00 UTC
Wind 3 kt from the South/Southwest
Temperature 6°C
Humidity 100%
Pressure 1023 hPa
Visibility: 5000 m
mist

METAR: LFOP 200000Z AUTO 20003KT 5000 BR NSC 06/06 Q1023

Time: 02:18 (00:18 UTC)

Forecast

The report was made 7 hours and 18 minutes ago, at 17:00 UTC
Forecast valid from 19 at 18 UTC to 20 at 18 UTC
Wind 8 kt from the Northwest
Visibility 10 km or more
no clouds below 1500 m and no cumulonimbus
Temporary
from 19 at 22 UTC to 20 at 06 UTC
Visibility: 1500 m
patches of fog

TAF: LFOP 191700Z 1918/2018 31008KT CAVOK TEMPO 1922/2006 1500 BCFG

Weather observations and forecasts of more than 4000 airports (METAR and TAF reports).

The available stations are represented by yellow and red dots on the map.

Hover mouse over dot to see the name of the station.

Then click to see weather observations and forecasts.

To change the map : click on the green buttons with a black cross to zoom in, on the green button with a dash to zoom out, or on the green arrows for adjacent maps.


METAR-TAF: